sensor_id;sensor_type;location;lat;lon;timestamp;P1;durP1;ratioP1;P2;durP2;ratioP2
18732;SDS011;9495;51.210;2.934;2023-02-03T00:00:23;15.90;;;3.27;;
18732;SDS011;9495;51.210;2.934;2023-02-03T00:02:54;13.03;;;3.07;;
18732;SDS011;9495;51.210;2.934;2023-02-03T00:05:22;16.47;;;2.93;;
18732;SDS011;9495;51.210;2.934;2023-02-03T00:07:51;14.37;;;3.07;;
18732;SDS011;9495;51.210;2.934;2023-02-03T00:10:21;12.90;;;2.87;;
18732;SDS011;9495;51.210;2.934;2023-02-03T00:12:50;13.33;;;2.53;;
18732;SDS011;9495;51.210;2.934;2023-02-03T00:15:19;18.83;;;3.20;;
18732;SDS011;9495;51.210;2.934;2023-02-03T00:17:48;17.77;;;3.40;;
18732;SDS011;9495;51.210;2.934;2023-02-03T00:20:17;19.50;;;2.83;;
18732;SDS011;9495;51.210;2.934;2023-02-03T00:22:45;15.53;;;3.67;;
18732;SDS011;9495;51.210;2.934;2023-02-03T00:25:13;12.77;;;3.03;;
18732;SDS011;9495;51.210;2.934;2023-02-03T00:27:44;18.23;;;3.20;;
18732;SDS011;9495;51.210;2.934;2023-02-03T00:30:12;14.37;;;2.90;;
18732;SDS011;9495;51.210;2.934;2023-02-03T00:32:41;11.57;;;2.67;;
18732;SDS011;9495;51.210;2.934;2023-02-03T00:35:09;14.00;;;2.87;;
18732;SDS011;9495;51.210;2.934;2023-02-03T00:37:38;11.30;;;2.80;;
18732;SDS011;9495;51.210;2.934;2023-02-03T00:40:06;12.27;;;3.37;;
18732;SDS011;9495;51.210;2.934;2023-02-03T00:42:35;15.83;;;3.30;;
18732;SDS011;9495;51.210;2.934;2023-02-03T00:45:06;21.97;;;3.53;;
18732;SDS011;9495;51.210;2.934;2023-02-03T00:47:35;19.43;;;4.23;;
18732;SDS011;9495;51.210;2.934;2023-02-03T00:50:03;17.53;;;3.83;;
18732;SDS011;9495;51.210;2.934;2023-02-03T00:52:32;19.03;;;4.23;;
18732;SDS011;9495;51.210;2.934;2023-02-03T00:55:00;17.97;;;3.57;;
18732;SDS011;9495;51.210;2.934;2023-02-03T00:57:29;16.20;;;3.57;;
18732;SDS011;9495;51.210;2.934;2023-02-03T00:59:57;13.93;;;3.40;;
18732;SDS011;9495;51.210;2.934;2023-02-03T01:02:27;17.37;;;3.60;;
18732;SDS011;9495;51.210;2.934;2023-02-03T01:04:55;19.10;;;3.37;;
18732;SDS011;9495;51.210;2.934;2023-02-03T01:07:24;26.73;;;3.73;;
18732;SDS011;9495;51.210;2.934;2023-02-03T01:09:52;17.47;;;4.23;;
18732;SDS011;9495;51.210;2.934;2023-02-03T01:12:21;21.83;;;4.47;;
18732;SDS011;9495;51.210;2.934;2023-02-03T01:14:49;22.63;;;4.13;;
18732;SDS011;9495;51.210;2.934;2023-02-03T01:17:18;18.10;;;4.40;;
18732;SDS011;9495;51.210;2.934;2023-02-03T01:19:49;27.27;;;4.70;;
18732;SDS011;9495;51.210;2.934;2023-02-03T01:22:18;26.17;;;4.23;;
18732;SDS011;9495;51.210;2.934;2023-02-03T01:24:46;25.70;;;4.57;;
18732;SDS011;9495;51.210;2.934;2023-02-03T01:27:15;18.43;;;3.27;;
18732;SDS011;9495;51.210;2.934;2023-02-03T01:29:43;25.07;;;4.50;;
18732;SDS011;9495;51.210;2.934;2023-02-03T01:32:12;20.17;;;4.07;;
18732;SDS011;9495;51.210;2.934;2023-02-03T01:34:40;19.80;;;3.70;;
18732;SDS011;9495;51.210;2.934;2023-02-03T01:37:10;25.03;;;4.03;;
18732;SDS011;9495;51.210;2.934;2023-02-03T01:39:39;19.37;;;3.93;;
18732;SDS011;9495;51.210;2.934;2023-02-03T01:42:08;17.33;;;3.70;;
18732;SDS011;9495;51.210;2.934;2023-02-03T01:44:41;24.93;;;3.80;;
18732;SDS011;9495;51.210;2.934;2023-02-03T01:47:13;28.33;;;4.93;;
18732;SDS011;9495;51.210;2.934;2023-02-03T01:49:55;28.57;;;4.60;;
18732;SDS011;9495;51.210;2.934;2023-02-03T01:52:34;29.87;;;4.83;;
18732;SDS011;9495;51.210;2.934;2023-02-03T01:55:04;26.47;;;4.33;;
18732;SDS011;9495;51.210;2.934;2023-02-03T01:57:37;21.20;;;4.03;;
18732;SDS011;9495;51.210;2.934;2023-02-03T02:00:10;23.13;;;4.77;;
18732;SDS011;9495;51.210;2.934;2023-02-03T02:02:39;23.00;;;3.83;;
18732;SDS011;9495;51.210;2.934;2023-02-03T02:05:12;21.93;;;3.60;;
18732;SDS011;9495;51.210;2.934;2023-02-03T02:07:46;23.20;;;4.20;;
18732;SDS011;9495;51.210;2.934;2023-02-03T02:10:15;22.57;;;4.70;;
18732;SDS011;9495;51.210;2.934;2023-02-03T02:12:43;28.27;;;5.30;;
18732;SDS011;9495;51.210;2.934;2023-02-03T02:15:13;27.07;;;4.10;;
18732;SDS011;9495;51.210;2.934;2023-02-03T02:20:37;26.70;;;4.07;;
18732;SDS011;9495;51.210;2.934;2023-02-03T02:23:52;27.90;;;5.10;;
18732;SDS011;9495;51.210;2.934;2023-02-03T02:32:50;19.97;;;3.80;;
18732;SDS011;9495;51.210;2.934;2023-02-03T02:35:43;24.10;;;4.10;;
18732;SDS011;9495;51.210;2.934;2023-02-03T02:38:19;29.70;;;4.37;;
18732;SDS011;9495;51.210;2.934;2023-02-03T02:40:53;20.37;;;4.03;;
18732;SDS011;9495;51.210;2.934;2023-02-03T02:43:28;25.83;;;4.47;;
18732;SDS011;9495;51.210;2.934;2023-02-03T02:46:05;19.57;;;3.50;;
18732;SDS011;9495;51.210;2.934;2023-02-03T02:48:39;19.13;;;3.43;;
18732;SDS011;9495;51.210;2.934;2023-02-03T02:51:13;19.93;;;4.00;;
18732;SDS011;9495;51.210;2.934;2023-02-03T02:53:43;29.43;;;4.50;;
18732;SDS011;9495;51.210;2.934;2023-02-03T02:56:16;21.00;;;4.13;;
18732;SDS011;9495;51.210;2.934;2023-02-03T02:58:46;21.03;;;3.43;;
18732;SDS011;9495;51.210;2.934;2023-02-03T03:01:16;19.47;;;3.73;;
18732;SDS011;9495;51.210;2.934;2023-02-03T03:03:46;19.27;;;4.10;;
18732;SDS011;9495;51.210;2.934;2023-02-03T03:06:16;29.93;;;4.80;;
18732;SDS011;9495;51.210;2.934;2023-02-03T03:08:47;26.03;;;4.57;;
18732;SDS011;9495;51.210;2.934;2023-02-03T03:11:20;21.63;;;4.20;;
18732;SDS011;9495;51.210;2.934;2023-02-03T03:13:51;23.37;;;4.77;;
18732;SDS011;9495;51.210;2.934;2023-02-03T03:16:23;26.40;;;4.40;;
18732;SDS011;9495;51.210;2.934;2023-02-03T03:18:55;30.63;;;5.00;;
18732;SDS011;9495;51.210;2.934;2023-02-03T03:21:27;21.47;;;4.27;;
18732;SDS011;9495;51.210;2.934;2023-02-03T03:24:00;24.60;;;5.10;;
18732;SDS011;9495;51.210;2.934;2023-02-03T03:26:33;20.53;;;3.87;;
18732;SDS011;9495;51.210;2.934;2023-02-03T03:29:06;23.83;;;4.37;;
18732;SDS011;9495;51.210;2.934;2023-02-03T03:31:39;23.30;;;3.50;;
18732;SDS011;9495;51.210;2.934;2023-02-03T03:34:10;28.47;;;4.70;;
18732;SDS011;9495;51.210;2.934;2023-02-03T03:36:41;21.43;;;4.63;;
18732;SDS011;9495;51.210;2.934;2023-02-03T03:39:14;19.00;;;4.33;;
18732;SDS011;9495;51.210;2.934;2023-02-03T03:41:51;17.90;;;4.47;;
18732;SDS011;9495;51.210;2.934;2023-02-03T03:44:25;25.37;;;3.83;;
18732;SDS011;9495;51.210;2.934;2023-02-03T03:46:58;18.90;;;3.77;;
18732;SDS011;9495;51.210;2.934;2023-02-03T03:49:33;18.23;;;3.37;;
18732;SDS011;9495;51.210;2.934;2023-02-03T03:52:04;15.13;;;4.00;;
18732;SDS011;9495;51.210;2.934;2023-02-03T03:54:35;18.53;;;4.10;;
18732;SDS011;9495;51.210;2.934;2023-02-03T03:57:06;18.33;;;3.30;;
18732;SDS011;9495;51.210;2.934;2023-02-03T03:59:42;19.07;;;3.47;;
18732;SDS011;9495;51.210;2.934;2023-02-03T04:02:13;16.43;;;2.97;;
18732;SDS011;9495;51.210;2.934;2023-02-03T04:04:45;17.17;;;3.27;;
18732;SDS011;9495;51.210;2.934;2023-02-03T04:07:15;17.87;;;3.83;;
18732;SDS011;9495;51.210;2.934;2023-02-03T04:09:45;15.97;;;3.57;;
18732;SDS011;9495;51.210;2.934;2023-02-03T04:12:15;18.90;;;3.47;;
18732;SDS011;9495;51.210;2.934;2023-02-03T04:14:48;20.97;;;3.30;;
18732;SDS011;9495;51.210;2.934;2023-02-03T04:17:17;14.40;;;3.13;;
18732;SDS011;9495;51.210;2.934;2023-02-03T04:19:47;16.43;;;3.20;;
18732;SDS011;9495;51.210;2.934;2023-02-03T04:22:16;15.67;;;3.90;;
18732;SDS011;9495;51.210;2.934;2023-02-03T04:24:44;13.33;;;2.53;;
18732;SDS011;9495;51.210;2.934;2023-02-03T04:27:13;12.77;;;2.63;;
18732;SDS011;9495;51.210;2.934;2023-02-03T04:29:41;14.00;;;2.97;;
18732;SDS011;9495;51.210;2.934;2023-02-03T04:32:09;13.73;;;3.83;;
18732;SDS011;9495;51.210;2.934;2023-02-03T04:34:38;14.43;;;3.00;;
18732;SDS011;9495;51.210;2.934;2023-02-03T04:37:08;15.33;;;3.23;;
18732;SDS011;9495;51.210;2.934;2023-02-03T04:39:36;19.00;;;3.17;;
18732;SDS011;9495;51.210;2.934;2023-02-03T04:42:05;12.70;;;2.47;;
18732;SDS011;9495;51.210;2.934;2023-02-03T04:44:33;13.97;;;3.27;;
18732;SDS011;9495;51.210;2.934;2023-02-03T04:47:02;12.80;;;3.20;;
18732;SDS011;9495;51.210;2.934;2023-02-03T04:49:30;16.30;;;3.53;;
18732;SDS011;9495;51.210;2.934;2023-02-03T04:51:59;9.50;;;2.20;;
18732;SDS011;9495;51.210;2.934;2023-02-03T04:54:28;13.23;;;3.03;;
18732;SDS011;9495;51.210;2.934;2023-02-03T04:56:57;13.23;;;3.03;;
18732;SDS011;9495;51.210;2.934;2023-02-03T04:59:25;16.07;;;3.47;;
18732;SDS011;9495;51.210;2.934;2023-02-03T05:01:54;12.47;;;2.80;;
18732;SDS011;9495;51.210;2.934;2023-02-03T05:04:23;15.27;;;3.40;;
18732;SDS011;9495;51.210;2.934;2023-02-03T05:06:51;17.47;;;3.77;;
18732;SDS011;9495;51.210;2.934;2023-02-03T05:09:21;17.70;;;2.93;;
18732;SDS011;9495;51.210;2.934;2023-02-03T05:11:51;17.20;;;3.40;;
18732;SDS011;9495;51.210;2.934;2023-02-03T05:14:20;22.93;;;3.87;;
18732;SDS011;9495;51.210;2.934;2023-02-03T05:16:48;18.10;;;3.63;;
18732;SDS011;9495;51.210;2.934;2023-02-03T05:19:17;20.10;;;3.17;;
18732;SDS011;9495;51.210;2.934;2023-02-03T05:21:45;16.83;;;3.33;;
18732;SDS011;9495;51.210;2.934;2023-02-03T05:24:14;18.03;;;3.03;;
18732;SDS011;9495;51.210;2.934;2023-02-03T05:26:42;12.57;;;2.83;;
18732;SDS011;9495;51.210;2.934;2023-02-03T05:29:12;17.80;;;3.47;;
18732;SDS011;9495;51.210;2.934;2023-02-03T05:31:40;17.77;;;3.20;;
18732;SDS011;9495;51.210;2.934;2023-02-03T05:34:08;18.90;;;2.90;;
18732;SDS011;9495;51.210;2.934;2023-02-03T05:36:37;13.07;;;3.10;;
18732;SDS011;9495;51.210;2.934;2023-02-03T05:39:05;16.47;;;3.20;;
18732;SDS011;9495;51.210;2.934;2023-02-03T05:41:34;15.67;;;3.00;;
18732;SDS011;9495;51.210;2.934;2023-02-03T05:44:25;12.47;;;3.17;;
18732;SDS011;9495;51.210;2.934;2023-02-03T05:46:55;14.23;;;3.57;;
18732;SDS011;9495;51.210;2.934;2023-02-03T05:49:24;17.30;;;2.83;;
18732;SDS011;9495;51.210;2.934;2023-02-03T05:51:53;16.27;;;3.00;;
18732;SDS011;9495;51.210;2.934;2023-02-03T05:54:22;20.13;;;3.50;;
18732;SDS011;9495;51.210;2.934;2023-02-03T05:56:51;18.87;;;3.90;;
18732;SDS011;9495;51.210;2.934;2023-02-03T05:59:19;12.57;;;2.93;;
18732;SDS011;9495;51.210;2.934;2023-02-03T06:01:49;16.17;;;3.20;;
18732;SDS011;9495;51.210;2.934;2023-02-03T06:04:18;14.20;;;3.27;;
18732;SDS011;9495;51.210;2.934;2023-02-03T06:06:46;13.37;;;3.33;;
18732;SDS011;9495;51.210;2.934;2023-02-03T06:09:14;11.37;;;2.30;;
18732;SDS011;9495;51.210;2.934;2023-02-03T06:11:43;15.67;;;3.50;;
18732;SDS011;9495;51.210;2.934;2023-02-03T06:14:11;18.37;;;3.20;;
18732;SDS011;9495;51.210;2.934;2023-02-03T06:16:40;13.97;;;3.20;;
18732;SDS011;9495;51.210;2.934;2023-02-03T06:19:09;12.27;;;2.97;;
18732;SDS011;9495;51.210;2.934;2023-02-03T06:21:41;13.70;;;2.87;;
18732;SDS011;9495;51.210;2.934;2023-02-03T06:24:09;21.07;;;3.33;;
18732;SDS011;9495;51.210;2.934;2023-02-03T06:26:38;11.53;;;2.73;;
18732;SDS011;9495;51.210;2.934;2023-02-03T06:29:06;12.00;;;2.70;;
18732;SDS011;9495;51.210;2.934;2023-02-03T06:31:34;18.47;;;3.70;;
18732;SDS011;9495;51.210;2.934;2023-02-03T06:34:03;16.93;;;2.87;;
18732;SDS011;9495;51.210;2.934;2023-02-03T06:36:33;10.67;;;2.93;;
18732;SDS011;9495;51.210;2.934;2023-02-03T06:39:02;14.33;;;3.60;;
18732;SDS011;9495;51.210;2.934;2023-02-03T06:41:30;16.23;;;2.70;;
18732;SDS011;9495;51.210;2.934;2023-02-03T06:43:59;11.33;;;2.63;;
18732;SDS011;9495;51.210;2.934;2023-02-03T06:46:27;13.10;;;3.03;;
18732;SDS011;9495;51.210;2.934;2023-02-03T06:48:56;19.87;;;3.10;;
18732;SDS011;9495;51.210;2.934;2023-02-03T06:51:24;13.17;;;2.93;;
18732;SDS011;9495;51.210;2.934;2023-02-03T06:53:54;16.67;;;3.30;;
18732;SDS011;9495;51.210;2.934;2023-02-03T06:56:24;9.77;;;2.47;;
18732;SDS011;9495;51.210;2.934;2023-02-03T06:58:52;15.10;;;2.90;;
18732;SDS011;9495;51.210;2.934;2023-02-03T07:01:21;11.53;;;2.77;;
18732;SDS011;9495;51.210;2.934;2023-02-03T07:03:51;15.77;;;2.90;;
18732;SDS011;9495;51.210;2.934;2023-02-03T07:06:23;18.97;;;3.50;;
18732;SDS011;9495;51.210;2.934;2023-02-03T07:08:56;15.13;;;3.07;;
18732;SDS011;9495;51.210;2.934;2023-02-03T07:11:27;18.50;;;3.63;;
18732;SDS011;9495;51.210;2.934;2023-02-03T07:13:55;19.57;;;2.90;;
18732;SDS011;9495;51.210;2.934;2023-02-03T07:16:24;11.43;;;2.63;;
18732;SDS011;9495;51.210;2.934;2023-02-03T07:18:53;12.13;;;2.80;;
18732;SDS011;9495;51.210;2.934;2023-02-03T07:21:21;16.77;;;3.40;;
18732;SDS011;9495;51.210;2.934;2023-02-03T07:23:50;17.30;;;3.23;;
18732;SDS011;9495;51.210;2.934;2023-02-03T07:26:20;17.77;;;3.27;;
18732;SDS011;9495;51.210;2.934;2023-02-03T07:28:50;11.90;;;3.23;;
18732;SDS011;9495;51.210;2.934;2023-02-03T07:31:19;14.60;;;3.07;;
18732;SDS011;9495;51.210;2.934;2023-02-03T07:33:48;19.67;;;3.47;;
18732;SDS011;9495;51.210;2.934;2023-02-03T07:36:16;19.20;;;4.00;;
18732;SDS011;9495;51.210;2.934;2023-02-03T07:38:45;21.73;;;4.40;;
18732;SDS011;9495;51.210;2.934;2023-02-03T07:41:13;21.63;;;3.70;;
18732;SDS011;9495;51.210;2.934;2023-02-03T07:43:44;28.47;;;4.93;;
18732;SDS011;9495;51.210;2.934;2023-02-03T07:46:13;23.97;;;5.03;;
18732;SDS011;9495;51.210;2.934;2023-02-03T07:48:42;23.13;;;4.73;;
18732;SDS011;9495;51.210;2.934;2023-02-03T07:51:10;33.83;;;5.23;;
18732;SDS011;9495;51.210;2.934;2023-02-03T07:53:39;31.67;;;5.60;;
18732;SDS011;9495;51.210;2.934;2023-02-03T07:56:08;27.40;;;4.83;;
18732;SDS011;9495;51.210;2.934;2023-02-03T07:58:37;34.40;;;5.40;;
18732;SDS011;9495;51.210;2.934;2023-02-03T08:01:10;33.00;;;5.20;;
18732;SDS011;9495;51.210;2.934;2023-02-03T08:03:40;23.93;;;5.17;;
18732;SDS011;9495;51.210;2.934;2023-02-03T08:06:09;18.80;;;4.03;;
18732;SDS011;9495;51.210;2.934;2023-02-03T08:08:37;23.57;;;3.83;;
18732;SDS011;9495;51.210;2.934;2023-02-03T08:11:06;23.80;;;4.97;;
18732;SDS011;9495;51.210;2.934;2023-02-03T08:13:34;21.60;;;4.50;;
18732;SDS011;9495;51.210;2.934;2023-02-03T08:16:03;24.00;;;5.17;;
18732;SDS011;9495;51.210;2.934;2023-02-03T08:18:33;22.37;;;4.30;;
18732;SDS011;9495;51.210;2.934;2023-02-03T08:21:02;28.57;;;4.93;;
18732;SDS011;9495;51.210;2.934;2023-02-03T08:23:30;26.53;;;4.77;;
18732;SDS011;9495;51.210;2.934;2023-02-03T08:25:59;26.27;;;5.17;;
18732;SDS011;9495;51.210;2.934;2023-02-03T08:28:27;22.10;;;3.93;;
18732;SDS011;9495;51.210;2.934;2023-02-03T08:30:56;29.70;;;4.90;;
18732;SDS011;9495;51.210;2.934;2023-02-03T08:33:24;24.97;;;4.20;;
18732;SDS011;9495;51.210;2.934;2023-02-03T08:35:55;25.83;;;4.30;;
18732;SDS011;9495;51.210;2.934;2023-02-03T08:38:25;21.40;;;4.47;;
18732;SDS011;9495;51.210;2.934;2023-02-03T08:40:54;27.37;;;4.80;;
18732;SDS011;9495;51.210;2.934;2023-02-03T08:43:22;22.77;;;4.03;;
18732;SDS011;9495;51.210;2.934;2023-02-03T08:45:51;19.30;;;4.23;;
18732;SDS011;9495;51.210;2.934;2023-02-03T08:48:19;26.53;;;5.00;;
18732;SDS011;9495;51.210;2.934;2023-02-03T08:50:47;21.80;;;4.07;;
18732;SDS011;9495;51.210;2.934;2023-02-03T08:53:19;25.97;;;4.23;;
18732;SDS011;9495;51.210;2.934;2023-02-03T08:55:48;20.80;;;4.13;;
18732;SDS011;9495;51.210;2.934;2023-02-03T08:58:16;20.47;;;4.50;;
18732;SDS011;9495;51.210;2.934;2023-02-03T09:00:44;17.60;;;3.80;;
18732;SDS011;9495;51.210;2.934;2023-02-03T09:03:15;20.83;;;4.50;;
18732;SDS011;9495;51.210;2.934;2023-02-03T09:05:44;23.60;;;4.57;;
18732;SDS011;9495;51.210;2.934;2023-02-03T09:08:12;18.97;;;4.17;;
18732;SDS011;9495;51.210;2.934;2023-02-03T09:10:42;20.63;;;3.37;;
18732;SDS011;9495;51.210;2.934;2023-02-03T09:13:10;23.97;;;5.17;;
18732;SDS011;9495;51.210;2.934;2023-02-03T09:15:39;21.47;;;4.47;;
18732;SDS011;9495;51.210;2.934;2023-02-03T09:18:07;27.07;;;5.33;;
18732;SDS011;9495;51.210;2.934;2023-02-03T09:20:35;26.73;;;5.57;;
18732;SDS011;9495;51.210;2.934;2023-02-03T09:23:04;22.07;;;4.43;;
18732;SDS011;9495;51.210;2.934;2023-02-03T09:25:33;24.30;;;5.17;;
18732;SDS011;9495;51.210;2.934;2023-02-03T09:28:03;23.20;;;5.00;;
18732;SDS011;9495;51.210;2.934;2023-02-03T09:30:31;27.23;;;4.40;;
18732;SDS011;9495;51.210;2.934;2023-02-03T09:32:59;22.50;;;4.73;;
18732;SDS011;9495;51.210;2.934;2023-02-03T09:35:28;27.23;;;5.53;;
18732;SDS011;9495;51.210;2.934;2023-02-03T09:37:57;25.90;;;4.13;;
18732;SDS011;9495;51.210;2.934;2023-02-03T09:40:26;22.93;;;4.43;;
18732;SDS011;9495;51.210;2.934;2023-02-03T09:43:14;24.53;;;4.23;;
18732;SDS011;9495;51.210;2.934;2023-02-03T09:45:59;23.97;;;4.87;;
18732;SDS011;9495;51.210;2.934;2023-02-03T09:48:30;27.17;;;4.47;;
18732;SDS011;9495;51.210;2.934;2023-02-03T09:51:03;21.77;;;4.33;;
18732;SDS011;9495;51.210;2.934;2023-02-03T09:53:41;25.07;;;5.13;;
18732;SDS011;9495;51.210;2.934;2023-02-03T09:56:17;23.50;;;4.43;;
18732;SDS011;9495;51.210;2.934;2023-02-03T09:58:53;19.47;;;4.03;;
18732;SDS011;9495;51.210;2.934;2023-02-03T10:01:22;21.83;;;4.37;;
18732;SDS011;9495;51.210;2.934;2023-02-03T10:03:55;23.13;;;4.37;;
18732;SDS011;9495;51.210;2.934;2023-02-03T10:06:30;19.33;;;3.80;;
18732;SDS011;9495;51.210;2.934;2023-02-03T10:09:08;24.40;;;4.87;;
18732;SDS011;9495;51.210;2.934;2023-02-03T10:12:05;22.43;;;4.03;;
18732;SDS011;9495;51.210;2.934;2023-02-03T10:14:52;22.13;;;4.70;;
18732;SDS011;9495;51.210;2.934;2023-02-03T10:17:29;15.63;;;3.40;;
18732;SDS011;9495;51.210;2.934;2023-02-03T10:20:04;14.43;;;3.37;;
18732;SDS011;9495;51.210;2.934;2023-02-03T10:22:39;20.57;;;3.57;;
18732;SDS011;9495;51.210;2.934;2023-02-03T10:25:14;26.47;;;4.60;;
18732;SDS011;9495;51.210;2.934;2023-02-03T10:27:50;25.70;;;5.20;;
18732;SDS011;9495;51.210;2.934;2023-02-03T10:30:24;24.10;;;3.90;;
18732;SDS011;9495;51.210;2.934;2023-02-03T10:32:53;20.80;;;4.00;;
18732;SDS011;9495;51.210;2.934;2023-02-03T10:35:27;20.67;;;4.17;;
18732;SDS011;9495;51.210;2.934;2023-02-03T10:38:03;18.17;;;3.60;;
18732;SDS011;9495;51.210;2.934;2023-02-03T10:40:40;15.77;;;4.07;;
18732;SDS011;9495;51.210;2.934;2023-02-03T10:43:08;21.50;;;4.47;;
18732;SDS011;9495;51.210;2.934;2023-02-03T10:45:56;21.10;;;4.07;;
18732;SDS011;9495;51.210;2.934;2023-02-03T10:48:25;22.53;;;3.77;;
18732;SDS011;9495;51.210;2.934;2023-02-03T10:50:55;22.97;;;4.57;;
18732;SDS011;9495;51.210;2.934;2023-02-03T10:53:25;17.27;;;4.17;;
18732;SDS011;9495;51.210;2.934;2023-02-03T10:55:59;20.43;;;4.20;;
18732;SDS011;9495;51.210;2.934;2023-02-03T10:58:30;19.57;;;3.57;;
18732;SDS011;9495;51.210;2.934;2023-02-03T11:01:06;17.97;;;4.23;;
18732;SDS011;9495;51.210;2.934;2023-02-03T11:03:37;24.80;;;4.03;;
18732;SDS011;9495;51.210;2.934;2023-02-03T11:06:08;18.07;;;4.17;;
18732;SDS011;9495;51.210;2.934;2023-02-03T11:08:39;16.67;;;4.13;;
18732;SDS011;9495;51.210;2.934;2023-02-03T11:11:08;24.80;;;5.63;;
18732;SDS011;9495;51.210;2.934;2023-02-03T11:13:40;19.43;;;4.67;;
18732;SDS011;9495;51.210;2.934;2023-02-03T11:16:12;21.67;;;4.90;;
18732;SDS011;9495;51.210;2.934;2023-02-03T11:18:46;26.13;;;5.27;;
18732;SDS011;9495;51.210;2.934;2023-02-03T11:21:20;22.50;;;5.13;;
18732;SDS011;9495;51.210;2.934;2023-02-03T11:23:54;17.90;;;4.20;;
18732;SDS011;9495;51.210;2.934;2023-02-03T11:26:27;16.57;;;4.00;;
18732;SDS011;9495;51.210;2.934;2023-02-03T11:28:59;14.20;;;3.67;;
18732;SDS011;9495;51.210;2.934;2023-02-03T11:31:31;22.37;;;3.77;;
18732;SDS011;9495;51.210;2.934;2023-02-03T11:34:01;19.83;;;4.77;;
18732;SDS011;9495;51.210;2.934;2023-02-03T11:36:32;22.17;;;4.07;;
18732;SDS011;9495;51.210;2.934;2023-02-03T11:39:15;28.67;;;4.27;;
18732;SDS011;9495;51.210;2.934;2023-02-03T11:41:46;19.13;;;4.03;;
18732;SDS011;9495;51.210;2.934;2023-02-03T11:44:16;23.87;;;4.27;;
18732;SDS011;9495;51.210;2.934;2023-02-03T11:46:52;22.97;;;4.23;;
18732;SDS011;9495;51.210;2.934;2023-02-03T11:49:40;24.30;;;4.47;;
18732;SDS011;9495;51.210;2.934;2023-02-03T11:55:33;24.37;;;4.13;;
18732;SDS011;9495;51.210;2.934;2023-02-03T11:58:13;24.73;;;4.80;;
18732;SDS011;9495;51.210;2.934;2023-02-03T12:01:04;26.90;;;4.53;;
18732;SDS011;9495;51.210;2.934;2023-02-03T12:03:45;24.23;;;5.07;;
18732;SDS011;9495;51.210;2.934;2023-02-03T12:06:32;19.47;;;4.67;;
18732;SDS011;9495;51.210;2.934;2023-02-03T12:09:18;24.57;;;5.07;;
18732;SDS011;9495;51.210;2.934;2023-02-03T12:12:05;23.17;;;5.23;;
18732;SDS011;9495;51.210;2.934;2023-02-03T12:14:48;17.43;;;3.90;;
18732;SDS011;9495;51.210;2.934;2023-02-03T12:17:34;34.37;;;6.30;;
18732;SDS011;9495;51.210;2.934;2023-02-03T12:20:29;20.07;;;4.20;;
18732;SDS011;9495;51.210;2.934;2023-02-03T12:23:10;25.80;;;5.10;;
18732;SDS011;9495;51.210;2.934;2023-02-03T12:25:52;23.07;;;4.47;;
18732;SDS011;9495;51.210;2.934;2023-02-03T12:28:33;18.67;;;4.53;;
18732;SDS011;9495;51.210;2.934;2023-02-03T12:31:13;22.60;;;4.33;;
18732;SDS011;9495;51.210;2.934;2023-02-03T12:33:45;24.73;;;4.40;;
18732;SDS011;9495;51.210;2.934;2023-02-03T12:36:19;23.13;;;4.23;;
18732;SDS011;9495;51.210;2.934;2023-02-03T12:38:53;25.17;;;4.67;;
18732;SDS011;9495;51.210;2.934;2023-02-03T12:41:28;22.23;;;4.63;;
18732;SDS011;9495;51.210;2.934;2023-02-03T12:44:03;15.17;;;3.87;;
18732;SDS011;9495;51.210;2.934;2023-02-03T12:46:35;25.40;;;5.20;;
18732;SDS011;9495;51.210;2.934;2023-02-03T12:49:12;26.63;;;5.00;;
18732;SDS011;9495;51.210;2.934;2023-02-03T12:51:50;21.83;;;5.10;;
18732;SDS011;9495;51.210;2.934;2023-02-03T12:54:26;23.20;;;4.30;;
18732;SDS011;9495;51.210;2.934;2023-02-03T12:57:04;18.50;;;3.90;;
18732;SDS011;9495;51.210;2.934;2023-02-03T12:59:42;16.83;;;4.20;;
18732;SDS011;9495;51.210;2.934;2023-02-03T13:02:17;20.20;;;4.33;;
18732;SDS011;9495;51.210;2.934;2023-02-03T13:04:51;24.07;;;4.83;;
18732;SDS011;9495;51.210;2.934;2023-02-03T13:07:25;26.33;;;5.37;;
18732;SDS011;9495;51.210;2.934;2023-02-03T13:10:01;18.00;;;4.13;;
18732;SDS011;9495;51.210;2.934;2023-02-03T13:12:35;14.93;;;4.00;;
18732;SDS011;9495;51.210;2.934;2023-02-03T13:15:12;22.80;;;3.97;;
18732;SDS011;9495;51.210;2.934;2023-02-03T13:17:51;15.43;;;3.57;;
18732;SDS011;9495;51.210;2.934;2023-02-03T13:20:24;15.27;;;3.80;;
18732;SDS011;9495;51.210;2.934;2023-02-03T13:22:56;17.37;;;4.57;;
18732;SDS011;9495;51.210;2.934;2023-02-03T13:25:26;17.30;;;4.40;;
18732;SDS011;9495;51.210;2.934;2023-02-03T13:28:06;20.47;;;4.63;;
18732;SDS011;9495;51.210;2.934;2023-02-03T13:33:46;20.17;;;4.67;;
18732;SDS011;9495;51.210;2.934;2023-02-03T13:36:47;11.80;;;3.70;;
18732;SDS011;9495;51.210;2.934;2023-02-03T13:39:46;18.97;;;3.70;;
18732;SDS011;9495;51.210;2.934;2023-02-03T13:42:23;18.23;;;4.27;;
18732;SDS011;9495;51.210;2.934;2023-02-03T13:44:53;13.00;;;3.60;;
18732;SDS011;9495;51.210;2.934;2023-02-03T13:47:26;14.90;;;3.67;;
18732;SDS011;9495;51.210;2.934;2023-02-03T13:49:57;13.10;;;3.83;;
18732;SDS011;9495;51.210;2.934;2023-02-03T13:52:31;17.97;;;4.13;;
18732;SDS011;9495;51.210;2.934;2023-02-03T13:55:03;18.73;;;3.63;;
18732;SDS011;9495;51.210;2.934;2023-02-03T13:57:33;15.37;;;4.17;;
18732;SDS011;9495;51.210;2.934;2023-02-03T14:00:03;21.77;;;4.93;;
18732;SDS011;9495;51.210;2.934;2023-02-03T14:05:38;19.23;;;4.70;;
18732;SDS011;9495;51.210;2.934;2023-02-03T14:20:32;21.93;;;4.60;;
18732;SDS011;9495;51.210;2.934;2023-02-03T14:23:07;13.20;;;4.10;;
18732;SDS011;9495;51.210;2.934;2023-02-03T14:25:41;20.17;;;3.90;;
18732;SDS011;9495;51.210;2.934;2023-02-03T14:28:14;21.00;;;4.30;;
18732;SDS011;9495;51.210;2.934;2023-02-03T14:31:07;21.03;;;3.60;;
18732;SDS011;9495;51.210;2.934;2023-02-03T14:33:44;18.97;;;3.70;;
18732;SDS011;9495;51.210;2.934;2023-02-03T14:36:43;16.53;;;3.87;;
18732;SDS011;9495;51.210;2.934;2023-02-03T14:42:42;17.10;;;4.50;;
18732;SDS011;9495;51.210;2.934;2023-02-03T14:45:46;12.30;;;3.97;;
18732;SDS011;9495;51.210;2.934;2023-02-03T14:48:50;15.83;;;3.67;;
18732;SDS011;9495;51.210;2.934;2023-02-03T14:51:30;13.33;;;3.13;;
18732;SDS011;9495;51.210;2.934;2023-02-03T14:54:21;18.43;;;3.80;;
18732;SDS011;9495;51.210;2.934;2023-02-03T14:57:10;13.63;;;3.97;;
18732;SDS011;9495;51.210;2.934;2023-02-03T14:59:49;15.97;;;3.73;;
18732;SDS011;9495;51.210;2.934;2023-02-03T15:02:26;16.50;;;4.53;;
18732;SDS011;9495;51.210;2.934;2023-02-03T15:07:57;15.07;;;3.77;;
18732;SDS011;9495;51.210;2.934;2023-02-03T15:10:28;20.17;;;4.27;;
18732;SDS011;9495;51.210;2.934;2023-02-03T15:13:21;17.53;;;3.70;;
18732;SDS011;9495;51.210;2.934;2023-02-03T15:15:52;16.73;;;3.40;;
18732;SDS011;9495;51.210;2.934;2023-02-03T15:18:27;19.67;;;3.90;;
18732;SDS011;9495;51.210;2.934;2023-02-03T15:20:58;17.33;;;4.30;;
18732;SDS011;9495;51.210;2.934;2023-02-03T15:23:27;22.97;;;4.80;;
18732;SDS011;9495;51.210;2.934;2023-02-03T15:25:57;18.70;;;4.83;;
18732;SDS011;9495;51.210;2.934;2023-02-03T15:28:27;17.40;;;4.17;;
18732;SDS011;9495;51.210;2.934;2023-02-03T15:30:57;23.83;;;4.30;;
18732;SDS011;9495;51.210;2.934;2023-02-03T15:33:31;21.83;;;4.67;;
18732;SDS011;9495;51.210;2.934;2023-02-03T15:36:03;15.67;;;4.23;;
18732;SDS011;9495;51.210;2.934;2023-02-03T15:38:36;19.70;;;4.50;;
18732;SDS011;9495;51.210;2.934;2023-02-03T15:41:10;18.90;;;4.93;;
18732;SDS011;9495;51.210;2.934;2023-02-03T15:43:46;21.93;;;4.77;;
18732;SDS011;9495;51.210;2.934;2023-02-03T15:46:16;20.63;;;4.67;;
18732;SDS011;9495;51.210;2.934;2023-02-03T15:48:53;21.77;;;4.67;;
18732;SDS011;9495;51.210;2.934;2023-02-03T15:51:26;20.03;;;4.73;;
18732;SDS011;9495;51.210;2.934;2023-02-03T15:54:00;20.13;;;4.77;;
18732;SDS011;9495;51.210;2.934;2023-02-03T15:56:32;21.23;;;4.30;;